createdAt,value
2018-09-22T00:01:38.578Z,1.20
2018-09-22T00:04:06.697Z,1.00
2018-09-22T00:06:34.187Z,1.10
2018-09-22T00:09:01.734Z,1.10
2018-09-22T00:11:29.254Z,1.30
2018-09-22T00:13:57.303Z,1.30
2018-09-22T00:16:24.817Z,1.10
2018-09-22T00:18:52.452Z,1.80
2018-09-22T00:21:19.967Z,1.30
2018-09-22T00:23:48.315Z,1.30
2018-09-22T00:26:15.817Z,0.90
2018-09-22T00:28:43.312Z,1.23
2018-09-22T00:31:10.814Z,1.17
2018-09-22T00:33:38.319Z,1.20
2018-09-22T00:36:05.803Z,1.30
2018-09-22T00:38:33.639Z,1.60
2018-09-22T00:41:02.020Z,2.00
2018-09-22T00:43:29.535Z,2.07
2018-09-22T00:45:57.020Z,1.47
2018-09-22T00:48:24.520Z,1.20
2018-09-22T00:50:52.040Z,1.00
2018-09-22T00:53:19.550Z,1.37
2018-09-22T00:55:47.063Z,1.07
2018-09-22T00:58:14.567Z,0.90
2018-09-22T01:00:42.072Z,1.30
2018-09-22T01:03:09.663Z,2.30
2018-09-22T01:05:37.183Z,1.00
2018-09-22T01:08:04.744Z,1.10
2018-09-22T01:10:32.260Z,1.73
2018-09-22T01:12:59.768Z,1.03
2018-09-22T01:15:27.332Z,1.43
2018-09-22T01:17:54.778Z,1.00
2018-09-22T01:20:22.275Z,0.90
2018-09-22T01:22:49.775Z,1.03
2018-09-22T01:25:17.315Z,1.23
2018-09-22T01:27:44.791Z,0.97
2018-09-22T01:30:12.315Z,2.50
2018-09-22T01:32:39.832Z,1.13
2018-09-22T01:35:07.331Z,1.00
2018-09-22T01:37:34.843Z,1.37
2018-09-22T01:40:02.350Z,0.97
2018-09-22T01:42:29.886Z,0.87
2018-09-22T01:44:57.414Z,1.00
2018-09-22T01:47:24.919Z,1.30
2018-09-22T01:49:52.461Z,1.10
2018-09-22T01:52:20.008Z,1.00
2018-09-22T01:54:47.468Z,0.93
2018-09-22T01:57:14.967Z,1.10
2018-09-22T01:59:42.478Z,1.20
2018-09-22T02:02:10.012Z,1.30
2018-09-22T02:04:37.516Z,1.20
2018-09-22T02:07:05.029Z,1.43
2018-09-22T02:09:32.538Z,0.70
2018-09-22T02:12:00.027Z,1.90
2018-09-22T02:14:27.543Z,1.00
2018-09-22T02:16:55.051Z,1.20
2018-09-22T02:19:22.531Z,1.17
2018-09-22T02:21:50.051Z,1.60
2018-09-22T02:24:17.579Z,1.00
2018-09-22T02:26:45.063Z,0.90
2018-09-22T02:29:12.688Z,1.20
2018-09-22T02:31:40.199Z,1.43
2018-09-22T02:34:07.688Z,1.13
2018-09-22T02:36:35.186Z,1.00
2018-09-22T02:39:04.072Z,1.37
2018-09-22T02:41:31.571Z,1.23
2018-09-22T02:43:59.042Z,0.90
2018-09-22T02:46:26.536Z,1.13
2018-09-22T02:48:54.026Z,0.90
2018-09-22T02:51:21.508Z,1.10
2018-09-22T02:53:49.015Z,1.10
2018-09-22T02:56:16.516Z,1.43
2018-09-22T02:58:44.032Z,1.20
2018-09-22T03:01:11.539Z,1.00
2018-09-22T03:03:39.038Z,1.10
2018-09-22T03:06:06.571Z,1.07
2018-09-22T03:08:34.148Z,1.30
2018-09-22T03:11:01.611Z,1.17
2018-09-22T03:13:29.094Z,1.00
2018-09-22T03:15:56.604Z,1.30
2018-09-22T03:18:24.106Z,0.90
2018-09-22T03:20:51.619Z,1.37
2018-09-22T03:23:19.128Z,1.00
2018-09-22T03:25:46.632Z,1.57
2018-09-22T03:28:14.180Z,1.30
2018-09-22T03:30:41.789Z,0.97
2018-09-22T03:33:09.265Z,1.27
2018-09-22T03:35:36.770Z,0.87
2018-09-22T03:38:04.502Z,0.93
2018-09-22T03:40:32.035Z,1.60
2018-09-22T03:42:59.543Z,0.90
2018-09-22T03:45:27.051Z,0.80
2018-09-22T03:47:54.582Z,1.10
2018-09-22T03:50:22.062Z,1.20
2018-09-22T03:52:49.572Z,1.63
2018-09-22T03:55:17.074Z,0.80
2018-09-22T03:57:44.564Z,0.97
2018-09-22T04:00:12.354Z,0.90
2018-09-22T04:02:39.924Z,1.10
2018-09-22T04:05:07.727Z,0.87
2018-09-22T04:07:35.212Z,0.90
2018-09-22T04:10:02.709Z,1.20
2018-09-22T04:12:30.231Z,1.30
2018-09-22T04:14:57.724Z,1.20
2018-09-22T04:17:25.317Z,0.83
2018-09-22T04:19:53.092Z,1.43
2018-09-22T04:22:20.579Z,0.80
2018-09-22T04:24:48.093Z,1.70
2018-09-22T04:27:15.591Z,0.70
2018-09-22T04:29:43.084Z,1.10
2018-09-22T04:32:10.578Z,1.47
2018-09-22T04:34:38.075Z,1.10
2018-09-22T04:37:05.627Z,1.10
2018-09-22T04:39:33.108Z,0.80
2018-09-22T04:42:00.616Z,1.03
2018-09-22T04:44:28.115Z,0.80
2018-09-22T04:46:55.619Z,1.27
2018-09-22T04:49:23.115Z,1.47
2018-09-22T04:51:50.721Z,1.17
2018-09-22T04:54:18.401Z,0.90
2018-09-22T04:56:45.892Z,0.90
2018-09-22T04:59:15.564Z,1.20
2018-09-22T05:01:43.068Z,1.40
2018-09-22T05:04:10.559Z,1.23
2018-09-22T05:06:38.047Z,1.17
2018-09-22T05:09:08.163Z,1.03
2018-09-22T05:11:35.670Z,1.43
2018-09-22T05:14:03.175Z,1.00
2018-09-22T05:16:30.675Z,0.97
2018-09-22T05:18:58.240Z,1.27
2018-09-22T05:21:25.942Z,1.83
2018-09-22T05:23:53.452Z,1.40
2018-09-22T05:26:21.223Z,1.20
2018-09-22T05:28:49.147Z,1.27
2018-09-22T05:31:16.700Z,1.70
2018-09-22T05:33:44.199Z,1.30
2018-09-22T05:36:11.693Z,1.20
2018-09-22T05:38:40.405Z,1.40
2018-09-22T05:41:07.943Z,0.90
2018-09-22T05:43:36.412Z,1.50
2018-09-22T05:46:03.934Z,1.00
2018-09-22T05:48:31.427Z,1.07
2018-09-22T05:50:58.913Z,1.10
2018-09-22T05:53:26.413Z,1.43
2018-09-22T05:55:53.892Z,1.27
2018-09-22T05:58:21.410Z,1.13
2018-09-22T06:00:48.962Z,1.17
2018-09-22T06:03:16.511Z,1.10
2018-09-22T06:05:44.002Z,1.20
2018-09-22T06:08:11.524Z,1.13
2018-09-22T06:10:39.123Z,1.43
2018-09-22T06:13:06.627Z,1.27
2018-09-22T06:15:34.151Z,1.07
2018-09-22T06:18:01.646Z,1.00
2018-09-22T06:20:29.196Z,1.40
2018-09-22T06:22:56.953Z,1.20
2018-09-22T06:25:24.463Z,1.00
2018-09-22T06:27:52.824Z,1.00
2018-09-22T06:30:20.324Z,0.83
2018-09-22T06:32:47.835Z,1.73
2018-09-22T06:35:15.347Z,1.10
2018-09-22T06:37:42.852Z,1.10
2018-09-22T06:40:10.344Z,1.17
2018-09-22T06:42:37.852Z,1.13
2018-09-22T06:45:05.383Z,1.53
2018-09-22T06:47:32.939Z,1.33
2018-09-22T06:50:00.493Z,1.93
2018-09-22T06:52:27.976Z,1.23
2018-09-22T06:54:55.576Z,1.10
2018-09-22T06:57:23.099Z,1.30
2018-09-22T06:59:50.592Z,1.57
2018-09-22T07:02:18.119Z,1.37
2018-09-22T07:04:45.658Z,1.30
2018-09-22T07:07:13.168Z,1.30
2018-09-22T07:09:40.801Z,1.23
2018-09-22T07:12:08.343Z,1.47
2018-09-22T07:14:35.844Z,1.03
2018-09-22T07:17:03.535Z,1.10
2018-09-22T07:19:31.295Z,1.30
2018-09-22T07:22:04.341Z,1.30
2018-09-22T07:24:31.884Z,1.33
2018-09-22T07:26:59.400Z,1.87
2018-09-22T07:29:26.915Z,1.30
2018-09-22T07:31:54.419Z,0.90
2018-09-22T07:34:21.926Z,1.33
2018-09-22T07:36:49.419Z,1.00
2018-09-22T07:39:17.000Z,1.33
2018-09-22T07:41:44.511Z,1.93
2018-09-22T07:44:12.026Z,1.60
2018-09-22T07:46:39.539Z,1.30
2018-09-22T07:49:07.179Z,1.40
2018-09-22T07:51:34.662Z,1.60
2018-09-22T07:54:02.166Z,1.67
2018-09-22T07:56:29.908Z,1.60
2018-09-22T07:58:57.399Z,2.00
2018-09-22T08:01:25.806Z,1.60
2018-09-22T08:03:54.221Z,1.70
2018-09-22T08:06:21.991Z,1.80
2018-09-22T08:08:49.479Z,1.70
2018-09-22T08:11:16.996Z,1.97
2018-09-22T08:13:44.506Z,1.73
2018-09-22T08:16:12.024Z,1.90
2018-09-22T08:18:39.516Z,1.57
2018-09-22T08:21:07.063Z,2.20
2018-09-22T08:23:34.619Z,1.70
2018-09-22T08:26:02.183Z,1.77
2018-09-22T08:28:29.687Z,1.90
2018-09-22T08:30:57.169Z,1.57
2018-09-22T08:33:24.677Z,2.00
2018-09-22T08:35:52.307Z,1.97
2018-09-22T08:38:19.863Z,1.80
2018-09-22T08:40:47.371Z,1.70
2018-09-22T08:43:14.895Z,1.80
2018-09-22T08:45:42.404Z,1.70
2018-09-22T08:48:09.926Z,2.30
2018-09-22T08:50:37.505Z,2.30
2018-09-22T08:53:05.000Z,2.17
2018-09-22T08:55:33.125Z,1.90
2018-09-22T08:58:00.649Z,1.87
2018-09-22T09:00:28.159Z,2.00
2018-09-22T09:02:55.720Z,1.87
2018-09-22T09:05:23.244Z,2.10
2018-09-22T09:07:50.766Z,2.17
2018-09-22T09:10:18.315Z,3.13
2018-09-22T09:12:45.816Z,2.27
2018-09-22T09:15:13.321Z,2.00
2018-09-22T09:17:40.833Z,3.03
2018-09-22T09:20:08.336Z,1.77
2018-09-22T09:22:35.839Z,2.30
2018-09-22T09:25:03.363Z,2.10
2018-09-22T09:27:30.920Z,1.73
2018-09-22T09:29:58.389Z,2.20
2018-09-22T09:32:25.899Z,2.40
2018-09-22T09:34:53.407Z,1.97
2018-09-22T09:37:20.895Z,2.27
2018-09-22T09:39:48.434Z,2.37
2018-09-22T09:42:16.016Z,2.13
2018-09-22T09:44:43.507Z,2.57
2018-09-22T09:47:11.023Z,2.30
2018-09-22T09:49:38.508Z,1.80
2018-09-22T09:52:06.049Z,1.47
2018-09-22T09:54:33.607Z,1.33
2018-09-22T09:57:01.077Z,1.70
2018-09-22T09:59:28.619Z,1.20
2018-09-22T10:01:56.377Z,1.30
2018-09-22T10:04:24.471Z,1.10
2018-09-22T10:06:52.328Z,1.00
2018-09-22T10:09:20.032Z,1.23
2018-09-22T10:11:47.560Z,1.23
2018-09-22T10:14:15.065Z,1.17
2018-09-22T10:16:43.469Z,1.40
2018-09-22T10:19:10.995Z,1.20
2018-09-22T10:21:38.531Z,1.40
2018-09-22T10:24:06.091Z,1.10
2018-09-22T10:26:33.583Z,1.40
2018-09-22T10:29:01.166Z,1.20
2018-09-22T10:31:28.667Z,1.27
2018-09-22T10:33:56.267Z,1.57
2018-09-22T10:36:23.793Z,1.53
2018-09-22T10:38:51.299Z,1.30
2018-09-22T10:41:18.792Z,1.07
2018-09-22T10:43:46.318Z,1.87
2018-09-22T10:46:13.948Z,1.13
2018-09-22T10:48:41.447Z,1.77
2018-09-22T10:51:08.955Z,1.20
2018-09-22T10:53:36.459Z,0.83
2018-09-22T10:56:03.965Z,0.93
2018-09-22T10:58:31.460Z,1.07
2018-09-22T11:00:59.660Z,0.70
2018-09-22T11:03:27.235Z,0.77
2018-09-22T11:05:54.697Z,0.73
2018-09-22T11:08:22.206Z,0.90
2018-09-22T11:10:49.699Z,1.00
2018-09-22T11:13:17.218Z,1.10
2018-09-22T11:15:44.752Z,1.13
2018-09-22T11:18:12.259Z,1.20
2018-09-22T11:20:39.804Z,1.07
2018-09-22T11:23:07.385Z,1.03
2018-09-22T11:25:34.922Z,1.20
2018-09-22T11:28:02.460Z,1.73
2018-09-22T11:30:30.267Z,1.37
2018-09-22T11:32:57.811Z,1.17
2018-09-22T11:35:25.415Z,1.30
2018-09-22T11:37:52.923Z,1.00
2018-09-22T11:40:20.447Z,1.93
2018-09-22T11:42:47.970Z,1.20
2018-09-22T11:45:15.481Z,1.00
2018-09-22T11:47:42.983Z,0.90
2018-09-22T11:50:10.732Z,0.73
2018-09-22T11:52:38.447Z,0.80
2018-09-22T11:55:05.977Z,1.20
2018-09-22T11:57:33.779Z,0.97
2018-09-22T12:00:01.320Z,0.80
2018-09-22T12:02:29.975Z,1.00
2018-09-22T12:04:57.492Z,1.00
2018-09-22T12:07:24.991Z,0.80
2018-09-22T12:09:52.583Z,0.93
2018-09-22T12:12:20.092Z,0.83
2018-09-22T12:14:48.732Z,0.93
2018-09-22T12:17:16.235Z,1.00
2018-09-22T12:19:44.266Z,1.10
2018-09-22T12:22:11.787Z,1.10
2018-09-22T12:24:39.316Z,0.97
2018-09-22T12:27:06.836Z,1.07
2018-09-22T12:29:34.318Z,0.90
2018-09-22T12:32:01.879Z,0.80
2018-09-22T12:34:29.412Z,0.90
2018-09-22T12:36:56.922Z,1.23
2018-09-22T12:39:24.419Z,1.23
2018-09-22T12:41:51.944Z,1.07
2018-09-22T12:44:19.453Z,1.27
2018-09-22T12:46:46.978Z,1.30
2018-09-22T12:49:14.489Z,1.17
2018-09-22T12:51:42.973Z,1.57
2018-09-22T12:54:10.478Z,1.10
2018-09-22T12:56:38.032Z,1.40
2018-09-22T12:59:05.648Z,1.43
2018-09-22T13:01:33.168Z,1.27
2018-09-22T13:04:00.666Z,1.10
2018-09-22T13:06:28.214Z,1.20
2018-09-22T13:08:55.732Z,1.30
2018-09-22T13:11:23.255Z,1.13
2018-09-22T13:13:50.759Z,1.30
2018-09-22T13:16:18.352Z,0.90
2018-09-22T13:18:46.076Z,1.07
2018-09-22T13:21:13.631Z,1.10
2018-09-22T13:23:42.099Z,0.80
2018-09-22T13:26:09.591Z,1.10
2018-09-22T13:28:37.279Z,0.97
2018-09-22T13:31:04.994Z,1.00
2018-09-22T13:33:32.727Z,0.90
2018-09-22T13:36:00.248Z,1.00
2018-09-22T13:38:28.183Z,0.83
2018-09-22T13:40:55.674Z,0.97
2018-09-22T13:43:23.200Z,1.53
2018-09-22T13:45:50.701Z,1.10
2018-09-22T13:48:18.220Z,0.80
2018-09-22T13:50:45.797Z,1.20
2018-09-22T13:53:13.659Z,0.90
2018-09-22T13:55:41.167Z,0.90
2018-09-22T13:58:08.696Z,1.17
2018-09-22T14:00:36.247Z,1.10
2018-09-22T14:03:03.742Z,1.07
2018-09-22T14:05:31.264Z,1.13
2018-09-22T14:07:58.896Z,1.37
2018-09-22T14:10:26.430Z,1.30
2018-09-22T14:12:55.205Z,1.13
2018-09-22T14:15:22.758Z,1.30
2018-09-22T14:17:50.308Z,1.47
2018-09-22T14:20:17.830Z,1.13
2018-09-22T14:22:45.334Z,1.00
2018-09-22T14:25:12.867Z,1.67
2018-09-22T14:27:40.372Z,1.10
2018-09-22T14:30:07.927Z,1.20
2018-09-22T14:32:35.543Z,0.97
2018-09-22T14:35:03.061Z,1.50
2018-09-22T14:37:30.783Z,1.63
2018-09-22T14:39:58.294Z,1.40
2018-09-22T14:42:25.821Z,1.30
2018-09-22T14:44:53.336Z,1.37
2018-09-22T14:47:20.847Z,1.47
2018-09-22T14:49:48.357Z,1.20
2018-09-22T14:52:15.922Z,1.40
2018-09-22T14:54:43.495Z,1.37
2018-09-22T14:57:11.268Z,1.20
2018-09-22T14:59:38.832Z,1.30
2018-09-22T15:02:06.586Z,1.90
2018-09-22T15:04:34.117Z,1.20
2018-09-22T15:07:01.642Z,1.20
2018-09-22T15:09:29.314Z,1.40
2018-09-22T15:11:56.852Z,1.00
2018-09-22T15:14:24.376Z,1.00
2018-09-22T15:16:51.871Z,1.17
2018-09-22T15:19:19.404Z,1.10
2018-09-22T15:21:46.925Z,1.20
2018-09-22T15:24:15.352Z,1.00
2018-09-22T15:26:42.861Z,1.10
2018-09-22T15:29:10.404Z,1.20
2018-09-22T15:31:37.928Z,0.90
2018-09-22T15:34:05.530Z,0.93
2018-09-22T15:36:33.158Z,1.00
2018-09-22T15:39:00.662Z,1.40
2018-09-22T15:41:28.235Z,1.17
2018-09-22T15:43:55.776Z,1.00
2018-09-22T15:46:23.288Z,1.10
2018-09-22T15:48:50.800Z,1.10
2018-09-22T15:51:18.336Z,1.13
2018-09-22T15:53:45.840Z,1.20
2018-09-22T15:56:13.357Z,1.30
2018-09-22T15:58:40.872Z,1.20
2018-09-22T16:01:08.380Z,1.30
2018-09-22T16:03:35.899Z,1.53
2018-09-22T16:06:03.408Z,1.50
2018-09-22T16:08:30.906Z,1.20
2018-09-22T16:10:58.432Z,1.07
2018-09-22T16:13:25.921Z,1.33
2018-09-22T16:15:53.434Z,0.97
2018-09-22T16:18:20.944Z,1.00
2018-09-22T16:20:48.507Z,1.10
2018-09-22T16:23:16.012Z,1.40
2018-09-22T16:25:43.563Z,1.20
2018-09-22T16:28:11.069Z,1.10
2018-09-22T16:30:38.592Z,1.10
2018-09-22T16:33:06.184Z,1.17
2018-09-22T16:35:33.786Z,1.00
2018-09-22T16:38:01.303Z,1.43
2018-09-22T16:40:28.815Z,1.00
2018-09-22T16:42:56.377Z,1.00
2018-09-22T16:45:23.888Z,1.33
2018-09-22T16:47:51.404Z,0.80
2018-09-22T16:50:19.053Z,1.00
2018-09-22T16:52:46.547Z,0.93
2018-09-22T16:55:14.148Z,1.23
2018-09-22T16:57:41.663Z,1.30
2018-09-22T17:00:09.155Z,1.03
2018-09-22T17:02:36.663Z,1.17
2018-09-22T17:05:04.153Z,0.93
2018-09-22T17:07:31.710Z,0.80
2018-09-22T17:09:59.861Z,1.07
2018-09-22T17:12:27.364Z,0.87
2018-09-22T17:14:54.886Z,1.10
2018-09-22T17:17:22.380Z,1.10
2018-09-22T17:19:49.920Z,1.00
2018-09-22T17:22:17.523Z,1.00
2018-09-22T17:24:45.047Z,1.40
2018-09-22T17:27:12.601Z,1.07
2018-09-22T17:29:40.112Z,1.07
2018-09-22T17:32:07.623Z,1.53
2018-09-22T17:34:35.121Z,1.50
2018-09-22T17:37:02.611Z,1.00
2018-09-22T17:39:30.131Z,1.37
2018-09-22T17:41:57.643Z,1.30
2018-09-22T17:44:25.136Z,1.20
2018-09-22T17:46:52.665Z,1.00
2018-09-22T17:49:20.189Z,1.30
2018-09-22T17:51:47.834Z,1.07
2018-09-22T17:54:15.333Z,1.00
2018-09-22T17:56:43.746Z,1.10
2018-09-22T17:59:11.235Z,1.03
2018-09-22T18:01:39.558Z,1.20
2018-09-22T18:04:07.124Z,1.27
2018-09-22T18:06:34.640Z,1.30
2018-09-22T18:09:02.230Z,1.33
2018-09-22T18:11:29.757Z,1.10
2018-09-22T18:13:57.274Z,1.17
2018-09-22T18:16:25.527Z,1.13
2018-09-22T18:18:53.046Z,0.90
2018-09-22T18:21:20.619Z,1.57
2018-09-22T18:23:48.128Z,1.20
2018-09-22T18:26:15.647Z,1.00
2018-09-22T18:28:43.179Z,1.07
2018-09-22T18:31:10.691Z,1.10
2018-09-22T18:33:38.183Z,2.03
2018-09-22T18:36:05.760Z,1.50
2018-09-22T18:38:33.275Z,1.30
2018-09-22T18:41:00.770Z,1.20
2018-09-22T18:43:28.339Z,1.90
2018-09-22T18:45:55.869Z,1.70
2018-09-22T18:48:23.427Z,1.80
2018-09-22T18:50:50.964Z,1.87
2018-09-22T18:53:18.482Z,2.03
2018-09-22T18:55:46.892Z,2.10
2018-09-22T18:58:14.392Z,2.03
2018-09-22T19:00:41.882Z,2.07
2018-09-22T19:03:09.603Z,2.00
2018-09-22T19:05:37.205Z,2.07
2018-09-22T19:08:04.925Z,2.20
2018-09-22T19:10:32.434Z,1.80
2018-09-22T19:13:01.044Z,2.23
2018-09-22T19:15:36.871Z,1.93
2018-09-22T19:19:09.891Z,1.77
2018-09-22T19:21:47.467Z,1.90
2018-09-22T19:24:25.093Z,2.93
2018-09-22T19:26:59.557Z,2.03
2018-09-22T19:29:30.952Z,2.30
2018-09-22T19:32:02.815Z,2.20
2018-09-22T19:34:33.647Z,1.97
2018-09-22T19:37:05.332Z,2.10
2018-09-22T19:39:40.374Z,1.87
2018-09-22T19:42:11.002Z,2.40
2018-09-22T19:44:42.539Z,1.90
2018-09-22T19:48:15.539Z,2.40
2018-09-22T19:50:48.260Z,2.00
2018-09-22T19:53:15.826Z,2.50
2018-09-22T19:55:43.329Z,2.70
2018-09-22T19:58:10.891Z,2.77
2018-09-22T20:00:38.364Z,3.10
2018-09-22T20:03:05.943Z,3.70
2018-09-22T20:05:33.469Z,3.17
2018-09-22T20:08:01.946Z,3.37
2018-09-22T20:10:29.435Z,3.40
2018-09-22T20:12:56.948Z,3.80
2018-09-22T20:15:24.569Z,3.43
2018-09-22T20:17:52.144Z,3.77
2018-09-22T20:20:19.675Z,4.20
2018-09-22T20:22:47.234Z,3.97
2018-09-22T20:25:15.251Z,3.90
2018-09-22T20:27:42.772Z,4.70
2018-09-22T20:30:10.325Z,4.50
2018-09-22T20:32:37.877Z,4.30
2018-09-22T20:35:05.478Z,4.50
2018-09-22T20:37:33.154Z,4.40
2018-09-22T20:40:00.674Z,4.53
2018-09-22T20:42:28.209Z,4.70
2018-09-22T20:44:55.747Z,4.20
2018-09-22T20:47:23.239Z,4.20
2018-09-22T20:49:51.402Z,3.90
2018-09-22T20:52:18.907Z,4.13
2018-09-22T20:54:46.631Z,3.70
2018-09-22T20:57:14.208Z,4.00
2018-09-22T20:59:41.717Z,3.87
2018-09-22T21:02:09.341Z,3.87
2018-09-22T21:04:36.831Z,4.03
2018-09-22T21:07:04.434Z,3.97
2018-09-22T21:09:31.984Z,4.10
2018-09-22T21:11:59.480Z,4.33
2018-09-22T21:14:26.996Z,4.77
2018-09-22T21:16:54.503Z,4.83
2018-09-22T21:19:22.074Z,5.53
2018-09-22T21:21:49.591Z,6.33
2018-09-22T21:24:17.133Z,6.20
2018-09-22T21:26:44.661Z,6.30
2018-09-22T21:29:12.182Z,6.67
2018-09-22T21:31:39.716Z,6.50
2018-09-22T21:34:07.219Z,6.67
2018-09-22T21:36:34.758Z,6.83
2018-09-22T21:39:02.416Z,7.20
2018-09-22T21:41:29.938Z,7.20
2018-09-22T21:43:57.421Z,6.60
2018-09-22T21:46:25.026Z,6.13
2018-09-22T21:48:52.531Z,6.00
2018-09-22T21:51:20.014Z,6.53
2018-09-22T21:53:47.535Z,5.30
2018-09-22T21:56:15.084Z,6.40
2018-09-22T21:58:42.595Z,4.87
2018-09-22T22:01:15.884Z,4.87
2018-09-22T22:03:44.017Z,4.63
2018-09-22T22:06:11.565Z,4.63
2018-09-22T22:08:39.128Z,4.77
2018-09-22T22:11:06.790Z,4.60
2018-09-22T22:13:34.299Z,4.47
2018-09-22T22:16:01.794Z,4.20
2018-09-22T22:18:29.316Z,4.73
2018-09-22T22:20:56.830Z,5.17
2018-09-22T22:23:24.393Z,5.57
2018-09-22T22:25:51.895Z,5.43
2018-09-22T22:28:19.395Z,6.37
2018-09-22T22:30:46.969Z,6.47
2018-09-22T22:33:14.463Z,6.43
2018-09-22T22:35:41.951Z,6.60
2018-09-22T22:38:09.467Z,7.30
2018-09-22T22:40:36.956Z,6.67
2018-09-22T22:43:05.567Z,7.37
2018-09-22T22:45:33.043Z,7.17
2018-09-22T22:48:00.571Z,7.23
2018-09-22T22:50:28.067Z,8.43
2018-09-22T22:52:55.582Z,8.23
2018-09-22T22:55:23.266Z,8.87
2018-09-22T22:57:50.759Z,9.07
2018-09-22T23:00:18.264Z,9.30
2018-09-22T23:02:45.766Z,9.23
2018-09-22T23:05:13.263Z,9.00
2018-09-22T23:07:40.759Z,10.20
2018-09-22T23:10:08.303Z,10.13
2018-09-22T23:12:35.899Z,10.50
2018-09-22T23:15:03.478Z,11.17
2018-09-22T23:17:31.013Z,11.50
2018-09-22T23:19:58.606Z,11.37
2018-09-22T23:22:26.313Z,11.80
2018-09-22T23:24:53.812Z,12.00
2018-09-22T23:27:21.317Z,12.13
2018-09-22T23:29:48.799Z,11.80
2018-09-22T23:32:16.295Z,11.20
2018-09-22T23:34:43.817Z,11.70
2018-09-22T23:37:11.316Z,11.37
2018-09-22T23:39:38.811Z,10.83
2018-09-22T23:42:06.351Z,10.17
2018-09-22T23:44:33.908Z,10.90
2018-09-22T23:47:01.443Z,11.40
2018-09-22T23:49:28.947Z,10.87
2018-09-22T23:51:56.447Z,11.17
2018-09-22T23:54:23.948Z,11.50
2018-09-22T23:56:51.447Z,10.87
2018-09-22T23:59:18.979Z,11.73
